Time;durP1;ratioP1;P1;durP2;ratioP2;P2;SDS_P1;SDS_P2;PMS_P1;PMS_P2;Temp;Humidity;BMP_temperature;BMP_pressure;BME280_temperature;BME280_humidity;BME280_pressure;Samples;Min_cycle;Max_cycle;Signal;HPM_P1;HPM_P2
2022/01/08 00:00:58;;;;;;;8.33;6.57;;;3.60;99.90;;;;;;5053188;28;20075;-73
2022/01/08 00:03:24;;;;;;;7.90;5.93;;;3.50;99.90;;;;;;5054225;28;20490;-74
2022/01/08 00:05:50;;;;;;;9.90;6.70;;;3.50;99.90;;;;;;5054651;28;20029;-73
2022/01/08 00:08:16;;;;;;;6.20;5.47;;;3.40;99.90;;;;;;5054595;28;20025;-73
2022/01/08 00:10:41;;;;;;;7.13;6.27;;;3.40;99.90;;;;;;5054695;28;20028;-73
2022/01/08 00:13:08;;;;;;;9.03;6.47;;;3.40;99.90;;;;;;5054611;28;20025;-73
2022/01/08 00:15:36;;;;;;;10.17;6.60;;;3.40;99.90;;;;;;5054011;28;20569;-73
2022/01/08 00:18:02;;;;;;;9.03;6.47;;;3.40;99.90;;;;;;5054541;28;20025;-73
2022/01/08 00:20:28;;;;;;;9.87;6.20;;;3.40;99.90;;;;;;5054310;28;20367;-73
2022/01/08 00:22:56;;;;;;;9.43;5.93;;;3.20;99.90;;;;;;5049918;28;20171;-73
2022/01/08 00:25:21;;;;;;;7.80;6.33;;;3.30;99.90;;;;;;5036852;28;20070;-73
2022/01/08 00:27:47;;;;;;;7.00;5.97;;;3.20;99.90;;;;;;5053906;28;20366;-73
2022/01/08 00:30:13;;;;;;;9.27;6.17;;;3.30;99.90;;;;;;5053994;28;20024;-73
2022/01/08 00:32:40;;;;;;;6.53;5.90;;;3.30;99.90;;;;;;5035791;28;20029;-72
2022/01/08 00:35:10;;;;;;;9.53;6.30;;;3.30;99.90;;;;;;5054149;28;20189;-72
2022/01/08 00:37:39;;;;;;;7.20;6.20;;;3.20;99.90;;;;;;5054157;28;20025;-72
2022/01/08 00:40:10;;;;;;;5.93;5.30;;;3.30;99.90;;;;;;5036180;28;20128;-72
2022/01/08 00:42:37;;;;;;;9.30;6.37;;;3.30;99.90;;;;;;5053163;28;20039;-72
2022/01/08 00:45:04;;;;;;;8.17;6.37;;;3.30;99.90;;;;;;5053459;28;20025;-73
2022/01/08 00:47:30;;;;;;;7.47;6.60;;;3.20;99.90;;;;;;5053107;28;20104;-73
2022/01/08 00:49:57;;;;;;;9.63;6.73;;;3.20;99.90;;;;;;5053129;28;20029;-73
2022/01/08 00:52:23;;;;;;;7.93;6.17;;;3.20;99.90;;;;;;5031384;28;20020;-73
2022/01/08 00:54:49;;;;;;;7.90;6.20;;;3.20;99.90;;;;;;5053711;28;20433;-72
2022/01/08 00:57:14;;;;;;;10.77;6.60;;;3.20;99.90;;;;;;5032359;28;20025;-73
2022/01/08 00:59:40;;;;;;;10.83;7.13;;;3.20;99.90;;;;;;5032441;28;20037;-72
2022/01/08 01:02:06;;;;;;;9.07;7.50;;;3.10;99.90;;;;;;5033564;28;20057;-73
2022/01/08 01:04:32;;;;;;;6.40;5.80;;;3.00;99.90;;;;;;5033597;28;20128;-73
2022/01/08 01:06:58;;;;;;;7.47;6.50;;;3.00;99.90;;;;;;5033655;28;20018;-73
2022/01/08 01:09:23;;;;;;;8.30;6.37;;;2.90;99.90;;;;;;5033317;28;20457;-73
2022/01/08 01:11:51;;;;;;;9.23;7.00;;;2.90;99.90;;;;;;5030805;28;20491;-73
2022/01/08 01:14:16;;;;;;;8.37;6.90;;;2.90;99.90;;;;;;5033236;28;20051;-74
2022/01/08 01:16:42;;;;;;;7.60;6.47;;;2.90;99.90;;;;;;5031969;28;20494;-74
2022/01/08 01:19:08;;;;;;;7.00;6.30;;;2.90;99.90;;;;;;5033271;28;20108;-74
2022/01/08 01:21:34;;;;;;;6.73;5.50;;;2.80;99.90;;;;;;5034599;28;20029;-73
2022/01/08 01:24:07;;;;;;;7.07;6.37;;;2.70;99.90;;;;;;5052679;28;20052;-73
2022/01/08 01:26:34;;;;;;;7.80;7.00;;;2.70;99.90;;;;;;5052887;28;20112;-74
2022/01/08 01:43:05;;;;;;;9.50;7.13;;;2.60;99.90;;;;;;5052981;28;20044;-75
2022/01/08 01:48:10;;;;;;;6.90;6.03;;;2.60;99.90;;;;;;5053096;28;20098;-74
2022/01/08 01:50:35;;;;;;;8.20;6.20;;;2.50;99.90;;;;;;5052735;28;20025;-74
2022/01/08 01:53:01;;;;;;;6.90;6.20;;;2.50;99.90;;;;;;5034658;28;20459;-73
2022/01/08 01:55:27;;;;;;;8.33;6.30;;;2.50;99.90;;;;;;5034767;28;20028;-73
2022/01/08 01:57:53;;;;;;;7.80;6.73;;;2.50;99.90;;;;;;5034781;28;20036;-74
2022/01/08 02:00:19;;;;;;;8.23;6.40;;;2.50;99.90;;;;;;5052697;28;20037;-73
2022/01/08 02:02:44;;;;;;;9.70;5.77;;;2.50;99.90;;;;;;5052470;28;20032;-73
2022/01/08 02:05:10;;;;;;;7.30;5.90;;;2.50;99.90;;;;;;5034551;28;20078;-74
2022/01/08 02:07:36;;;;;;;7.10;6.00;;;2.40;99.90;;;;;;5052556;28;20025;-73
2022/01/08 02:10:03;;;;;;;7.17;6.40;;;2.50;99.90;;;;;;5034578;28;20028;-74
2022/01/08 02:12:31;;;;;;;7.70;5.33;;;2.50;99.90;;;;;;5052488;28;20048;-74
2022/01/08 02:14:57;;;;;;;6.97;5.40;;;2.40;99.90;;;;;;5052588;28;20021;-74
2022/01/08 02:17:23;;;;;;;6.57;5.60;;;2.40;99.90;;;;;;5034152;28;20082;-73
2022/01/08 02:19:53;;;;;;;7.70;5.40;;;2.40;99.90;;;;;;5052479;28;20379;-73
2022/01/08 02:22:20;;;;;;;6.90;5.57;;;2.40;99.90;;;;;;5052170;28;20025;-74
2022/01/08 02:24:47;;;;;;;5.37;4.70;;;2.30;99.90;;;;;;5036861;28;20025;-74
2022/01/08 02:27:14;;;;;;;7.83;4.97;;;2.30;99.90;;;;;;5038546;28;20021;-74
2022/01/08 02:29:41;;;;;;;7.33;5.27;;;2.30;99.90;;;;;;5056006;28;20021;-73
2022/01/08 02:32:14;;;;;;;4.93;4.50;;;2.30;99.90;;;;;;5037995;28;20052;-74
2022/01/08 02:34:41;;;;;;;6.57;5.50;;;2.30;99.90;;;;;;5038179;28;20032;-73
2022/01/08 02:37:08;;;;;;;6.87;4.90;;;2.30;99.90;;;;;;5056481;28;20421;-74
2022/01/08 02:39:42;;;;;;;4.43;4.03;;;2.30;99.90;;;;;;5056142;28;20025;-74
2022/01/08 02:42:12;;;;;;;6.67;4.70;;;2.20;99.90;;;;;;5038116;28;20040;-74
2022/01/08 02:44:39;;;;;;;4.53;4.23;;;2.20;99.90;;;;;;5056235;28;20031;-73
2022/01/08 02:47:05;;;;;;;4.33;3.93;;;2.20;99.90;;;;;;5055963;28;20124;-74
2022/01/08 02:49:35;;;;;;;4.63;3.97;;;2.20;99.90;;;;;;5056159;28;20060;-73
2022/01/08 02:52:01;;;;;;;5.70;4.10;;;2.20;99.90;;;;;;5037858;28;20028;-74
2022/01/08 02:54:27;;;;;;;4.53;4.13;;;2.20;99.90;;;;;;5055680;28;20017;-73
2022/01/08 02:56:53;;;;;;;5.07;4.00;;;2.10;99.90;;;;;;5035993;28;20025;-73
2022/01/08 02:59:19;;;;;;;4.70;4.30;;;2.10;99.90;;;;;;5018303;28;20049;-73
2022/01/08 03:01:45;;;;;;;4.50;4.10;;;2.10;99.90;;;;;;5035775;28;20474;-74
2022/01/08 03:04:12;;;;;;;6.17;4.17;;;2.10;99.90;;;;;;5036039;28;20022;-73
2022/01/08 03:06:38;;;;;;;5.83;4.60;;;2.10;99.90;;;;;;5018048;28;20036;-73
2022/01/08 03:09:04;;;;;;;4.27;3.87;;;2.10;99.90;;;;;;5036063;28;20029;-72
2022/01/08 03:11:31;;;;;;;4.63;3.93;;;2.10;99.90;;;;;;5035921;28;20112;-73
2022/01/08 03:13:56;;;;;;;4.63;3.53;;;2.10;99.90;;;;;;5036181;28;20047;-76
2022/01/08 03:16:22;;;;;;;3.70;3.30;;;2.10;99.90;;;;;;5049990;23;20141;-73
2022/01/08 03:18:49;;;;;;;7.20;3.80;;;2.10;99.90;;;;;;4998133;28;20018;-73
2022/01/08 03:21:18;;;;;;;4.47;3.60;;;2.00;99.90;;;;;;5016371;28;20022;-73
2022/01/08 03:23:49;;;;;;;3.73;3.43;;;2.00;99.90;;;;;;4996255;28;20030;-73
2022/01/08 03:26:20;;;;;;;4.03;3.55;;;2.00;99.90;;;;;;4996306;28;20072;-73
2022/01/08 03:28:46;;;;;;;5.05;3.10;;;1.90;99.90;;;;;;4994881;28;20483;-73
2022/01/08 03:31:14;;;;;;;3.57;3.27;;;2.00;99.90;;;;;;4996224;28;20025;-74
2022/01/08 03:33:41;;;;;;;4.23;3.13;;;1.90;99.90;;;;;;4996031;28;20026;-74
2022/01/08 03:36:07;;;;;;;4.57;3.77;;;1.80;99.90;;;;;;4994867;28;20022;-73
2022/01/08 03:38:34;;;;;;;5.30;3.43;;;1.80;99.90;;;;;;4994460;28;20137;-73
2022/01/08 03:41:01;;;;;;;4.03;3.73;;;1.80;99.90;;;;;;4994841;28;20046;-73
2022/01/08 03:43:27;;;;;;;5.53;3.70;;;1.90;99.90;;;;;;4995159;28;20053;-73
2022/01/08 03:45:52;;;;;;;4.10;3.10;;;1.90;99.90;;;;;;4994341;28;20365;-73
2022/01/08 03:48:31;;;;;;;3.50;3.20;;;1.90;99.90;;;;;;4995444;28;20041;-73
2022/01/08 03:50:58;;;;;;;4.57;3.27;;;1.90;99.90;;;;;;4995622;28;20018;-74
2022/01/08 03:53:25;;;;;;;3.37;3.07;;;1.90;99.90;;;;;;4996912;28;20041;-74
2022/01/08 03:55:51;;;;;;;3.90;3.57;;;1.90;99.90;;;;;;5014619;28;20025;-73
2022/01/08 03:58:18;;;;;;;3.27;2.97;;;1.90;99.90;;;;;;5015117;28;20076;-73
2022/01/08 04:00:44;;;;;;;4.40;3.83;;;1.80;99.90;;;;;;5015093;28;20605;-74
2022/01/08 04:03:10;;;;;;;3.83;3.20;;;1.90;99.90;;;;;;4997404;28;20087;-74
2022/01/08 04:05:36;;;;;;;5.37;4.10;;;1.80;99.90;;;;;;5015099;28;20026;-74
2022/01/08 04:08:01;;;;;;;3.93;3.60;;;1.80;99.90;;;;;;5015043;28;20464;-73
2022/01/08 04:10:27;;;;;;;3.70;3.07;;;1.80;99.90;;;;;;5014912;28;20029;-73
2022/01/08 04:12:57;;;;;;;3.47;3.20;;;1.80;99.90;;;;;;5014854;28;20030;-73
2022/01/08 04:17:53;;;;;;;5.27;3.20;;;1.80;99.90;;;;;;5014405;28;20384;-74
2022/01/08 04:20:20;;;;;;;4.10;3.80;;;1.80;99.90;;;;;;5014635;28;20030;-73
2022/01/08 04:22:49;;;;;;;4.07;3.73;;;1.90;99.90;;;;;;4993600;28;20031;-73
2022/01/08 04:25:17;;;;;;;4.00;3.67;;;1.80;99.90;;;;;;4995102;28;20025;-73
2022/01/08 04:27:42;;;;;;;4.13;3.73;;;1.90;99.90;;;;;;4993614;28;20026;-73
2022/01/08 04:30:08;;;;;;;4.77;4.20;;;1.90;99.90;;;;;;4993685;28;20038;-73
2022/01/08 04:32:34;;;;;;;5.47;3.93;;;1.80;99.90;;;;;;4993534;28;20022;-72
2022/01/08 04:35:00;;;;;;;5.63;4.83;;;1.80;99.90;;;;;;4995267;28;20026;-74
2022/01/08 04:37:26;;;;;;;5.40;4.50;;;1.60;99.90;;;;;;4993551;28;20026;-73
2022/01/08 04:39:51;;;;;;;6.20;4.97;;;1.70;99.90;;;;;;4994789;28;20062;-73
2022/01/08 04:42:17;;;;;;;5.53;4.40;;;1.70;99.90;;;;;;4994614;28;20535;-73
2022/01/08 04:44:43;;;;;;;5.03;4.50;;;1.70;99.90;;;;;;4994607;28;20037;-74
2022/01/08 04:47:09;;;;;;;5.00;4.50;;;1.70;99.90;;;;;;4994403;28;20129;-72
2022/01/08 04:49:35;;;;;;;4.70;4.30;;;1.70;99.90;;;;;;4994511;28;20027;-73
2022/01/08 04:52:01;;;;;;;4.90;4.50;;;1.60;99.90;;;;;;5000128;28;20083;-74
2022/01/08 04:54:27;;;;;;;4.27;3.97;;;1.50;99.90;;;;;;4996389;28;20503;-73
2022/01/08 04:56:52;;;;;;;5.80;4.40;;;1.50;99.90;;;;;;5022818;28;20041;-74
2022/01/08 04:59:18;;;;;;;4.43;4.03;;;1.50;99.90;;;;;;5033832;28;20063;-73
2022/01/08 05:01:44;;;;;;;5.30;4.53;;;1.50;99.90;;;;;;5015721;28;20021;-73
2022/01/08 05:04:10;;;;;;;4.33;3.93;;;1.50;99.90;;;;;;5033569;28;20021;-74
2022/01/08 05:06:36;;;;;;;4.67;4.27;;;1.60;99.90;;;;;;5033388;28;20029;-73
2022/01/08 05:09:03;;;;;;;7.93;5.27;;;1.60;99.90;;;;;;5033524;28;20169;-73
2022/01/08 05:11:29;;;;;;;5.70;5.20;;;1.60;99.90;;;;;;5033585;28;20025;-74
2022/01/08 05:13:56;;;;;;;6.47;5.43;;;1.50;99.90;;;;;;5015737;28;20382;-73
2022/01/08 05:16:22;;;;;;;5.37;4.87;;;1.50;99.90;;;;;;5033286;28;20398;-73
2022/01/08 05:18:51;;;;;;;5.40;4.27;;;1.40;99.90;;;;;;5033628;28;20116;-73
2022/01/08 05:23:49;;;;;;;8.15;5.10;;;1.50;99.90;;;;;;4994047;28;20083;-73
2022/01/08 05:26:15;;;;;;;5.73;5.10;;;1.60;99.90;;;;;;4993966;28;20552;-73
2022/01/08 05:28:41;;;;;;;5.77;5.27;;;1.60;99.90;;;;;;4992691;28;20027;-73
2022/01/08 05:31:07;;;;;;;4.97;4.57;;;1.40;99.90;;;;;;4993987;28;20037;-74
2022/01/08 05:33:33;;;;;;;5.17;4.77;;;1.30;99.90;;;;;;4993977;28;20092;-73
2022/01/08 05:35:59;;;;;;;6.17;5.57;;;1.30;99.90;;;;;;4976496;28;20393;-74
2022/01/08 05:38:25;;;;;;;5.33;4.90;;;1.40;99.90;;;;;;4993932;28;20030;-73
2022/01/08 05:40:51;;;;;;;6.43;5.23;;;1.40;99.90;;;;;;4993838;28;20395;-73
2022/01/08 05:43:16;;;;;;;6.77;5.80;;;1.40;99.90;;;;;;4993487;28;20029;-73
2022/01/08 05:45:42;;;;;;;8.23;5.67;;;1.50;99.90;;;;;;4993697;28;20096;-73
2022/01/08 05:48:09;;;;;;;7.40;5.40;;;1.50;99.90;;;;;;4993467;28;20417;-73
2022/01/08 05:50:34;;;;;;;5.60;4.93;;;1.50;99.90;;;;;;4993727;28;20072;-73
2022/01/08 05:53:00;;;;;;;6.90;5.57;;;1.50;99.90;;;;;;5007175;28;20033;-73
2022/01/08 05:55:26;;;;;;;6.70;5.67;;;1.50;99.90;;;;;;4995664;28;20065;-73
2022/01/08 05:57:51;;;;;;;5.80;5.20;;;1.40;99.90;;;;;;5012924;28;20038;-73
2022/01/08 06:00:17;;;;;;;6.17;5.57;;;1.40;99.90;;;;;;5012526;28;20391;-73
2022/01/08 06:02:43;;;;;;;7.00;5.27;;;1.40;99.90;;;;;;5012955;28;20022;-73
2022/01/08 06:05:09;;;;;;;6.00;5.43;;;1.40;99.90;;;;;;4995139;28;20368;-73
2022/01/08 06:07:35;;;;;;;5.63;5.13;;;1.40;99.90;;;;;;5012968;28;20022;-73
2022/01/08 06:10:01;;;;;;;6.20;5.57;;;1.40;99.90;;;;;;5013018;28;20034;-73
2022/01/08 06:12:27;;;;;;;5.60;5.10;;;1.40;99.90;;;;;;4995698;28;20030;-77
2022/01/08 06:14:53;;;;;;;5.70;5.10;;;1.40;99.90;;;;;;4995895;28;20395;-73
2022/01/08 06:17:19;;;;;;;5.33;4.83;;;1.40;99.90;;;;;;5012952;28;20033;-73
2022/01/08 06:19:45;;;;;;;5.17;4.67;;;1.30;99.90;;;;;;4995769;28;20034;-73
2022/01/08 06:22:10;;;;;;;5.83;5.23;;;1.40;99.90;;;;;;5012937;28;20526;-73
2022/01/08 06:24:36;;;;;;;6.73;5.67;;;1.40;99.90;;;;;;4995290;28;20124;-73
2022/01/08 06:27:02;;;;;;;5.80;5.30;;;1.50;99.90;;;;;;4995289;28;20112;-73
2022/01/08 06:29:28;;;;;;;6.07;5.57;;;1.60;99.90;;;;;;5012608;28;20038;-73
2022/01/08 06:31:53;;;;;;;5.80;5.13;;;1.50;99.90;;;;;;5012846;28;20030;-73
2022/01/08 06:34:20;;;;;;;9.43;5.10;;;1.40;99.90;;;;;;4995208;28;20018;-73
2022/01/08 06:36:47;;;;;;;5.30;4.90;;;1.20;99.90;;;;;;5012778;28;20088;-73
2022/01/08 06:39:14;;;;;;;6.50;5.83;;;1.20;99.90;;;;;;4995174;28;20475;-73
2022/01/08 06:41:39;;;;;;;6.67;5.87;;;1.10;99.90;;;;;;5012659;28;20036;-73
2022/01/08 06:44:06;;;;;;;10.33;7.13;;;1.10;99.90;;;;;;5012612;28;20105;-72
2022/01/08 06:46:31;;;;;;;12.57;6.47;;;1.10;99.90;;;;;;4995004;28;20105;-73
2022/01/08 06:48:57;;;;;;;7.63;6.30;;;1.00;99.90;;;;;;5012758;28;20547;-73
2022/01/08 06:51:23;;;;;;;6.63;5.40;;;1.00;99.90;;;;;;4994940;28;20431;-73
2022/01/08 06:53:49;;;;;;;6.77;6.17;;;1.00;99.90;;;;;;5012771;28;20026;-73
2022/01/08 06:56:17;;;;;;;6.20;5.40;;;1.00;99.90;;;;;;5012540;28;20026;-72
2022/01/08 06:58:42;;;;;;;6.37;5.77;;;1.00;99.90;;;;;;5012596;28;20018;-73
2022/01/08 07:01:08;;;;;;;7.30;5.33;;;1.00;99.90;;;;;;5012742;28;20025;-73
2022/01/08 07:03:36;;;;;;;5.50;5.00;;;1.00;99.90;;;;;;5012303;28;20030;-73
2022/01/08 07:06:03;;;;;;;5.80;4.70;;;1.00;99.90;;;;;;5011649;28;20041;-73
2022/01/08 07:08:28;;;;;;;6.90;5.03;;;1.00;99.90;;;;;;5012401;28;20026;-73
2022/01/08 07:10:54;;;;;;;5.27;4.77;;;1.10;99.90;;;;;;4996610;28;20387;-72
2022/01/08 07:13:20;;;;;;;8.53;6.10;;;1.20;99.90;;;;;;4998547;28;20041;-73
2022/01/08 07:15:46;;;;;;;7.97;5.47;;;1.10;99.90;;;;;;5016137;28;20084;-73
2022/01/08 07:18:11;;;;;;;5.97;5.43;;;1.00;99.90;;;;;;5015478;28;20030;-73
2022/01/08 07:20:37;;;;;;;5.93;5.33;;;1.00;99.90;;;;;;5015555;28;20483;-73
2022/01/08 07:23:03;;;;;;;6.53;5.87;;;1.00;99.90;;;;;;5015290;28;20518;-73
2022/01/08 07:25:29;;;;;;;6.07;5.50;;;1.00;99.90;;;;;;5015028;28;20056;-73
2022/01/08 07:27:55;;;;;;;5.60;5.03;;;1.00;99.90;;;;;;5015226;28;20045;-73
2022/01/08 07:30:21;;;;;;;4.87;4.37;;;1.10;99.90;;;;;;5015538;28;20022;-73
2022/01/08 07:32:49;;;;;;;5.37;4.87;;;1.10;99.90;;;;;;4998029;28;20036;-73
2022/01/08 07:35:19;;;;;;;7.63;5.20;;;1.10;99.90;;;;;;4998052;28;20026;-73
2022/01/08 07:37:45;;;;;;;5.77;5.17;;;1.10;99.90;;;;;;4997732;28;20022;-73
2022/01/08 07:40:12;;;;;;;5.73;5.20;;;1.10;99.90;;;;;;5015665;28;20106;-73
2022/01/08 07:42:39;;;;;;;5.47;5.07;;;1.10;99.90;;;;;;5015482;28;20472;-74
2022/01/08 07:45:06;;;;;;;6.00;5.20;;;1.20;99.90;;;;;;5015182;28;20048;-74
2022/01/08 07:47:32;;;;;;;6.20;5.27;;;1.20;99.90;;;;;;4997614;28;20029;-73
2022/01/08 07:49:58;;;;;;;6.80;5.53;;;1.20;99.90;;;;;;5015573;28;20113;-73
2022/01/08 07:52:24;;;;;;;7.77;6.57;;;1.20;99.90;;;;;;5015124;28;20384;-74
2022/01/08 07:54:50;;;;;;;8.23;6.80;;;1.20;99.90;;;;;;5015004;28;20116;-74
2022/01/08 07:57:16;;;;;;;6.33;5.73;;;1.10;99.90;;;;;;5015319;28;20026;-73
2022/01/08 07:59:42;;;;;;;6.47;5.37;;;1.20;99.90;;;;;;5014805;28;20069;-73
2022/01/08 08:02:11;;;;;;;6.43;5.83;;;1.30;99.90;;;;;;5014966;28;20483;-73
2022/01/08 08:04:37;;;;;;;7.70;6.00;;;1.30;99.90;;;;;;5014133;28;20055;-73
2022/01/08 08:07:03;;;;;;;8.73;6.07;;;1.30;99.90;;;;;;5015053;28;20018;-74
2022/01/08 08:09:29;;;;;;;12.90;6.60;;;1.30;99.90;;;;;;5014919;28;20056;-73
2022/01/08 08:11:55;;;;;;;8.03;6.13;;;1.40;99.90;;;;;;5015022;28;20491;-73
2022/01/08 08:14:20;;;;;;;8.67;6.10;;;1.40;99.90;;;;;;5014953;28;20032;-73
2022/01/08 08:16:46;;;;;;;7.47;5.67;;;1.50;99.90;;;;;;5014602;28;20145;-73
2022/01/08 08:19:12;;;;;;;6.43;5.80;;;1.50;99.90;;;;;;5014792;28;20025;-73
2022/01/08 08:21:38;;;;;;;8.10;6.23;;;1.50;99.90;;;;;;5013611;28;20080;-73
2022/01/08 08:24:06;;;;;;;7.30;6.23;;;1.60;99.90;;;;;;5015142;28;20025;-73
2022/01/08 08:26:32;;;;;;;8.67;6.20;;;1.60;99.90;;;;;;5015043;28;20022;-73
2022/01/08 08:28:59;;;;;;;6.83;6.23;;;1.70;99.90;;;;;;4997459;28;20037;-74
2022/01/08 08:31:25;;;;;;;9.17;6.97;;;1.80;99.90;;;;;;5014805;28;20468;-73
2022/01/08 08:33:50;;;;;;;11.13;6.07;;;1.70;99.90;;;;;;5014690;28;20084;-73
2022/01/08 08:36:16;;;;;;;7.33;6.17;;;1.70;99.90;;;;;;5014714;28;20033;-73
2022/01/08 08:38:42;;;;;;;10.00;6.67;;;1.70;99.90;;;;;;5014661;28;20025;-73
2022/01/08 08:41:10;;;;;;;8.43;6.47;;;1.80;99.90;;;;;;5014069;28;20113;-73
2022/01/08 08:43:35;;;;;;;11.20;7.43;;;1.90;99.90;;;;;;5014408;28;20033;-73
2022/01/08 08:46:01;;;;;;;9.77;7.53;;;1.90;99.90;;;;;;5014184;28;20077;-74
2022/01/08 08:48:27;;;;;;;9.37;7.33;;;1.90;99.90;;;;;;5014256;28;20377;-73
2022/01/08 08:51:12;;;;;;;12.63;8.43;;;2.00;99.90;;;;;;5014187;28;20036;-73
2022/01/08 08:53:38;;;;;;;9.87;7.87;;;2.10;99.90;;;;;;4977778;28;20108;-74
2022/01/08 08:56:04;;;;;;;10.73;7.90;;;2.10;99.90;;;;;;4994592;28;20113;-73
2022/01/08 08:58:30;;;;;;;13.00;8.63;;;2.20;99.90;;;;;;4987277;28;20025;-73
2022/01/08 09:00:56;;;;;;;22.90;18.63;;;2.20;99.90;;;;;;5014172;28;20025;-73
2022/01/08 09:03:22;;;;;;;17.00;12.50;;;2.40;99.90;;;;;;5013780;28;20033;-74
2022/01/08 09:05:47;;;;;;;13.43;10.20;;;2.40;99.90;;;;;;4996243;28;20026;-73
2022/01/08 09:08:13;;;;;;;14.63;10.47;;;2.40;99.90;;;;;;4996350;28;20344;-73
2022/01/08 09:10:39;;;;;;;17.77;12.20;;;2.50;99.90;;;;;;5013717;28;20025;-73
2022/01/08 09:13:05;;;;;;;15.60;11.70;;;2.50;99.90;;;;;;5013773;28;20026;-74
2022/01/08 09:15:30;;;;;;;20.07;11.93;;;2.50;99.90;;;;;;4996092;28;20199;-73
2022/01/08 09:17:57;;;;;;;18.10;12.13;;;2.60;99.90;;;;;;5013919;28;20364;-73
2022/01/08 09:20:25;;;;;;;17.20;12.50;;;2.60;99.90;;;;;;5013734;28;20025;-73
2022/01/08 09:22:51;;;;;;;19.63;11.70;;;2.70;99.90;;;;;;5013451;28;20575;-74
2022/01/08 09:25:19;;;;;;;16.33;11.07;;;2.70;99.90;;;;;;4995860;28;20120;-73
2022/01/08 09:27:45;;;;;;;16.60;12.17;;;2.70;99.90;;;;;;5013408;28;20101;-73
2022/01/08 09:30:11;;;;;;;19.87;13.30;;;2.70;99.90;;;;;;5013461;28;20029;-73
2022/01/08 09:32:37;;;;;;;20.97;13.30;;;2.80;99.90;;;;;;4995816;28;20026;-74
2022/01/08 09:35:04;;;;;;;22.63;14.40;;;2.80;99.90;;;;;;4995814;28;20553;-73
2022/01/08 09:37:30;;;;;;;22.63;13.40;;;2.90;99.90;;;;;;5013667;28;20495;-73
2022/01/08 09:39:56;;;;;;;21.00;13.30;;;2.90;99.90;;;;;;5013378;28;20064;-72
2022/01/08 09:42:21;;;;;;;39.50;21.90;;;2.90;99.90;;;;;;5013056;28;20538;-73
2022/01/08 09:44:47;;;;;;;49.37;27.13;;;3.00;99.90;;;;;;5013289;28;20101;-73
2022/01/08 09:47:13;;;;;;;91.77;45.90;;;3.00;99.90;;;;;;5013101;28;20495;-73
2022/01/08 09:49:39;;;;;;;78.87;42.50;;;3.00;99.90;;;;;;4995730;28;20379;-74
2022/01/08 09:52:07;;;;;;;94.50;47.83;;;3.10;99.90;;;;;;5013174;28;20025;-73
2022/01/08 09:54:33;;;;;;;41.90;24.63;;;3.10;99.90;;;;;;4995688;28;20506;-73
2022/01/08 09:56:59;;;;;;;74.57;40.07;;;3.20;99.90;;;;;;5012935;28;20034;-73
2022/01/08 09:59:25;;;;;;;218.67;104.53;;;3.20;99.90;;;;;;5013104;28;20231;-73
2022/01/08 10:01:58;;;;;;;166.87;80.70;;;3.20;99.90;;;;;;5013189;28;20105;-73
2022/01/08 10:04:38;;;;;;;86.67;44.13;;;3.20;99.90;;;;;;5013340;28;20329;-73
2022/01/08 10:07:22;;;;;;;64.30;35.13;;;3.30;99.90;;;;;;5012776;28;20017;-74
2022/01/08 10:10:00;;;;;;;41.60;24.50;;;3.40;99.90;;;;;;5013084;28;20380;-72
2022/01/08 10:12:59;;;;;;;52.10;28.60;;;3.40;99.90;;;;;;5013038;28;20057;-73
2022/01/08 10:18:27;;;;;;;19.10;12.90;;;3.50;99.90;;;;;;5013314;28;20040;-73
2022/01/08 10:20:55;;;;;;;17.63;12.20;;;3.60;99.90;;;;;;4994937;28;20053;-73
2022/01/08 10:23:26;;;;;;;18.00;11.47;;;3.70;99.90;;;;;;4996052;28;20073;-73
2022/01/08 10:26:05;;;;;;;15.50;11.37;;;3.70;99.90;;;;;;4991970;28;20065;-73
2022/01/08 10:28:43;;;;;;;16.30;10.87;;;3.70;99.90;;;;;;4993281;28;20034;-73
2022/01/08 10:31:23;;;;;;;14.87;10.87;;;3.80;99.90;;;;;;4993198;28;20022;-73
2022/01/08 10:34:02;;;;;;;16.60;10.63;;;3.80;99.90;;;;;;4991725;28;20023;-72
2022/01/08 10:36:32;;;;;;;19.93;11.40;;;3.80;99.90;;;;;;4993058;28;20527;-73
2022/01/08 10:39:00;;;;;;;17.60;11.07;;;3.80;99.90;;;;;;4992650;28;20484;-73
2022/01/08 10:41:28;;;;;;;17.53;11.50;;;3.80;99.90;;;;;;4992098;28;20369;-73
2022/01/08 10:44:08;;;;;;;20.83;12.10;;;3.80;99.90;;;;;;4992854;28;20023;-73
2022/01/08 10:46:34;;;;;;;16.97;11.83;;;3.80;99.90;;;;;;4996196;28;20023;-73
2022/01/08 10:49:00;;;;;;;17.37;12.37;;;3.80;99.90;;;;;;4995269;28;20117;-74
2022/01/08 10:51:32;;;;;;;20.33;11.73;;;3.90;99.90;;;;;;4997920;28;20105;-73
2022/01/08 10:54:00;;;;;;;18.43;11.73;;;3.90;99.90;;;;;;5016430;28;20026;-73
2022/01/08 10:56:45;;;;;;;20.07;12.23;;;4.00;99.90;;;;;;5033116;28;20024;-73
2022/01/08 10:59:12;;;;;;;14.43;10.77;;;4.00;99.90;;;;;;5036153;28;20650;-72
2022/01/08 11:01:39;;;;;;;14.77;10.67;;;4.00;99.90;;;;;;5017945;28;20490;-73
2022/01/08 11:04:07;;;;;;;17.67;11.90;;;4.10;99.90;;;;;;5035908;28;20025;-74
2022/01/08 11:06:43;;;;;;;15.63;10.43;;;4.10;99.90;;;;;;5035772;28;20043;-72
2022/01/08 11:09:09;;;;;;;15.90;10.73;;;4.20;99.90;;;;;;5017909;28;20064;-73
2022/01/08 11:11:35;;;;;;;12.80;10.40;;;4.30;99.90;;;;;;5035851;28;20045;-73
2022/01/08 11:14:07;;;;;;;14.13;10.30;;;4.30;99.90;;;;;;5035657;28;20108;-73
2022/01/08 11:16:34;;;;;;;19.47;9.40;;;4.40;99.90;;;;;;5035720;28;20069;-73
2022/01/08 11:19:03;;;;;;;16.67;10.23;;;4.50;99.90;;;;;;5035528;28;20032;-73
2022/01/08 11:21:30;;;;;;;13.25;8.57;;;4.50;99.90;;;;;;5034287;28;20463;-73
2022/01/08 11:24:00;;;;;;;13.90;8.60;;;4.60;99.90;;;;;;5015750;28;20109;-73
2022/01/08 11:26:27;;;;;;;14.80;8.73;;;4.60;99.90;;;;;;4998050;28;20049;-73
2022/01/08 11:28:58;;;;;;;11.75;8.15;;;4.60;99.90;;;;;;4998180;28;20029;-73
2022/01/08 11:31:30;;;;;;;9.33;7.33;;;4.70;99.90;;;;;;5015679;28;20375;-73
2022/01/08 11:34:01;;;;;;;12.40;7.82;;;4.70;99.90;;;;;;4998332;28;20030;-73
2022/01/08 11:36:27;;;;;;;11.27;7.68;;;4.80;99.90;;;;;;4998019;28;20116;-73
2022/01/08 11:38:55;;;;;;;9.20;8.27;;;4.80;99.90;;;;;;5015417;28;20049;-73
2022/01/08 11:41:22;;;;;;;13.43;7.10;;;4.80;99.90;;;;;;5015578;28;20022;-72
2022/01/08 11:43:50;;;;;;;8.35;6.18;;;4.90;99.90;;;;;;5015603;28;20022;-73
2022/01/08 11:46:17;;;;;;;12.80;7.65;;;4.90;99.90;;;;;;5015553;28;20022;-73
2022/01/08 11:48:47;;;;;;;8.93;7.15;;;4.90;99.90;;;;;;5015594;28;20022;-73
2022/01/08 11:51:33;;;;;;;6.43;5.82;;;5.00;99.90;;;;;;4997590;28;20033;-73
2022/01/08 11:53:59;;;;;;;11.15;7.25;;;5.00;99.90;;;;;;5015490;28;20030;-73
2022/01/08 11:56:36;;;;;;;10.52;7.47;;;5.00;99.90;;;;;;5014364;28;20030;-73
2022/01/08 11:59:15;;;;;;;15.48;7.95;;;5.00;99.90;;;;;;4997936;28;20052;-73
2022/01/08 12:01:44;;;;;;;9.13;6.32;;;5.10;99.90;;;;;;5015318;28;20022;-73
2022/01/08 12:04:34;;;;;;;10.48;6.90;;;5.10;99.90;;;;;;4997613;28;20018;-72
2022/01/08 12:07:40;;;;;;;11.55;7.25;;;5.20;99.90;;;;;;5015005;28;20160;-73
2022/01/08 12:10:18;;;;;;;11.18;6.97;;;5.20;99.90;;;;;;5015028;28;20022;-74
2022/01/08 12:12:51;;;;;;;8.68;5.88;;;5.20;99.90;;;;;;4997262;28;20061;-73
2022/01/08 12:15:39;;;;;;;6.45;5.55;;;5.30;99.90;;;;;;5014976;28;20088;-73
2022/01/08 12:18:06;;;;;;;9.75;5.72;;;5.30;99.90;;;;;;5014959;28;20392;-73
2022/01/08 12:20:41;;;;;;;9.68;5.80;;;5.30;99.90;;;;;;5014622;28;20022;-73
2022/01/08 12:23:31;;;;;;;8.10;6.38;;;5.40;99.90;;;;;;5000142;28;20109;-73
2022/01/08 12:26:28;;;;;;;7.55;5.45;;;5.40;99.90;;;;;;4993855;28;20030;-73
2022/01/08 12:29:01;;;;;;;8.57;5.35;;;5.50;99.90;;;;;;4994896;28;20097;-73
2022/01/08 12:31:52;;;;;;;7.38;5.90;;;5.50;99.90;;;;;;4995097;28;20560;-73
2022/01/08 12:34:32;;;;;;;11.40;6.35;;;5.50;99.90;;;;;;4995106;28;20054;-73
2022/01/08 12:36:59;;;;;;;9.20;6.18;;;5.50;99.90;;;;;;4995169;28;20521;-73
2022/01/08 12:39:43;;;;;;;9.55;6.72;;;5.60;99.90;;;;;;4994814;28;20054;-73
2022/01/08 12:42:24;;;;;;;14.32;6.97;;;5.60;99.90;;;;;;4994762;28;20030;-73
2022/01/08 12:44:59;;;;;;;11.85;7.43;;;5.60;99.90;;;;;;4993457;28;20380;-74
2022/01/08 12:47:42;;;;;;;8.77;6.68;;;5.60;99.90;;;;;;4999284;28;20022;-73
2022/01/08 12:50:22;;;;;;;10.05;7.20;;;5.70;99.90;;;;;;4996578;28;20037;-73
2022/01/08 12:53:06;;;;;;;7.35;5.88;;;5.70;99.90;;;;;;5001955;28;20030;-73
2022/01/08 12:55:34;;;;;;;7.13;6.22;;;5.70;99.90;;;;;;4994794;28;20022;-73
2022/01/08 12:58:01;;;;;;;9.57;6.10;;;5.70;99.90;;;;;;4994662;28;20038;-73
2022/01/08 13:00:27;;;;;;;9.60;6.30;;;5.70;99.90;;;;;;4994632;28;20038;-73
2022/01/08 13:02:53;;;;;;;8.98;6.95;;;5.70;99.90;;;;;;4977029;28;20026;-73
2022/01/08 13:05:19;;;;;;;7.82;6.25;;;5.70;99.90;;;;;;4994549;28;20101;-73
2022/01/08 13:07:52;;;;;;;9.30;6.32;;;5.80;99.90;;;;;;4994166;28;20126;-73
2022/01/08 13:10:19;;;;;;;9.77;7.00;;;5.80;99.90;;;;;;4994506;28;20088;-73
2022/01/08 13:13:04;;;;;;;11.55;6.70;;;5.80;99.90;;;;;;4994288;28;20026;-73
2022/01/08 13:15:33;;;;;;;10.23;7.15;;;5.80;99.90;;;;;;4994200;28;20046;-73
2022/01/08 13:18:18;;;;;;;10.38;6.90;;;5.80;99.90;;;;;;4994143;28;20464;-73
2022/01/08 13:20:44;;;;;;;10.55;7.60;;;5.80;99.90;;;;;;4994032;28;20027;-73
2022/01/08 13:23:11;;;;;;;12.38;7.45;;;5.80;99.90;;;;;;4991487;28;20372;-73